Time;durP1;ratioP1;P1;durP2;ratioP2;P2;SDS_P1;SDS_P2;PMS_P1;PMS_P2;Temp;Humidity;BMP_temperature;BMP_pressure;BME280_temperature;BME280_humidity;BME280_pressure;Samples;Min_cycle;Max_cycle;Signal;HPM_P1;HPM_P2
2024/04/04 00:00:21;;;;;;;;;;;11.70;99.90;;;;;;5090982;28;19957;-74
2024/04/04 00:02:46;;;;;;;;;;;11.60;99.90;;;;;;5092328;28;19911;-75
2024/04/04 00:05:12;;;;;;;;;;;11.60;99.90;;;;;;5091001;28;19961;-74
2024/04/04 00:07:37;;;;;;;;;;;11.60;99.90;;;;;;5092270;28;19943;-75
2024/04/04 00:10:03;;;;;;;;;;;11.60;99.90;;;;;;5090992;28;19919;-74
2024/04/04 00:12:29;;;;;;;;;;;11.60;99.90;;;;;;5092213;28;19929;-74
2024/04/04 00:14:54;;;;;;;;;;;11.60;99.90;;;;;;5092062;28;19915;-75
2024/04/04 00:17:20;;;;;;;;;;;11.60;99.90;;;;;;5092028;28;20394;-75
2024/04/04 00:19:46;;;;;;;;;;;11.50;99.90;;;;;;5090618;28;19931;-75
2024/04/04 00:22:11;;;;;;;;;;;11.60;99.90;;;;;;5090971;28;20300;-74
2024/04/04 00:24:37;;;;;;;;;;;11.50;99.90;;;;;;5090639;28;19907;-75
2024/04/04 00:27:02;;;;;;;;;;;11.50;99.90;;;;;;5091918;28;20388;-73
2024/04/04 00:29:28;;;;;;;;;;;11.50;99.90;;;;;;5091782;28;19908;-74
2024/04/04 00:31:54;;;;;;;;;;;11.50;99.90;;;;;;5091899;28;19907;-75
2024/04/04 00:34:20;;;;;;;;;;;11.50;99.90;;;;;;5090441;28;19915;-75
2024/04/04 00:36:46;;;;;;;;;;;11.50;99.90;;;;;;5091611;28;19943;-74
2024/04/04 00:39:12;;;;;;;;;;;11.50;99.90;;;;;;5090046;28;19969;-74
2024/04/04 00:41:38;;;;;;;;;;;11.50;99.90;;;;;;5090481;28;19957;-74
2024/04/04 00:44:04;;;;;;;;;;;11.50;99.90;;;;;;5091905;28;20592;-74
2024/04/04 00:46:30;;;;;;;;;;;11.50;99.90;;;;;;5091837;28;19904;-74
2024/04/04 00:48:58;;;;;;;;;;;11.50;99.90;;;;;;5090012;28;19957;-74
2024/04/04 00:51:24;;;;;;;;;;;11.50;99.90;;;;;;5091813;28;20311;-74
2024/04/04 00:53:53;;;;;;;;;;;11.40;99.90;;;;;;5090438;28;19954;-74
2024/04/04 00:56:18;;;;;;;;;;;11.50;99.90;;;;;;5089872;28;19911;-75
2024/04/04 00:58:44;;;;;;;;;;;11.40;99.90;;;;;;5091105;28;19915;-74
2024/04/04 01:01:09;;;;;;;;;;;11.40;99.90;;;;;;5090208;28;20379;-73
2024/04/04 01:03:35;;;;;;;;;;;11.30;99.90;;;;;;5089782;28;19907;-74
2024/04/04 01:06:00;;;;;;;;;;;11.30;99.90;;;;;;5089803;28;20288;-74
2024/04/04 01:08:26;;;;;;;;;;;11.30;99.90;;;;;;5089691;28;19916;-75
2024/04/04 01:10:52;;;;;;;;;;;11.30;99.90;;;;;;5089619;28;20002;-74
2024/04/04 01:13:17;;;;;;;;;;;11.20;99.90;;;;;;5091086;28;19943;-75
2024/04/04 01:15:43;;;;;;;;;;;11.30;99.90;;;;;;5089677;28;19947;-74
2024/04/04 01:18:08;;;;;;;;;;;11.20;99.90;;;;;;5089429;28;19923;-74
2024/04/04 01:20:34;;;;;;;;;;;11.20;99.90;;;;;;5089479;28;19942;-74
2024/04/04 01:22:59;;;;;;;;;;;11.20;99.90;;;;;;5090829;28;19990;-74
2024/04/04 01:25:25;;;;;;;;;;;11.10;99.90;;;;;;5090453;28;20018;-74
2024/04/04 01:27:51;;;;;;;;;;;11.20;99.90;;;;;;5090817;28;19904;-75
2024/04/04 01:30:16;;;;;;;;;;;11.10;99.90;;;;;;5090599;28;19934;-74
2024/04/04 01:32:42;;;;;;;;;;;11.10;99.90;;;;;;5089360;28;19908;-74
2024/04/04 01:35:07;;;;;;;;;;;11.10;99.90;;;;;;5090563;28;19948;-74
2024/04/04 01:37:33;;;;;;;;;;;11.10;99.90;;;;;;5089027;28;20055;-74
2024/04/04 01:39:59;;;;;;;;;;;11.10;99.90;;;;;;5074121;28;19921;-73
2024/04/04 01:42:24;;;;;;;;;;;11.10;99.90;;;;;;5052268;28;19920;-74
2024/04/04 01:44:50;;;;;;;;;;;11.10;99.90;;;;;;5070190;28;19912;-74
2024/04/04 01:47:15;;;;;;;;;;;11.10;99.90;;;;;;5052220;28;19908;-74
2024/04/04 01:49:41;;;;;;;;;;;11.10;99.90;;;;;;5070163;28;19931;-74
2024/04/04 01:52:06;;;;;;;;;;;11.10;99.90;;;;;;5070090;28;19912;-74
2024/04/04 01:54:32;;;;;;;;;;;11.10;99.90;;;;;;5052374;28;19946;-74
2024/04/04 01:56:57;;;;;;;;;;;11.10;99.90;;;;;;5052077;28;19908;-75
2024/04/04 01:59:23;;;;;;;;;;;11.00;99.90;;;;;;5051723;28;19958;-74
2024/04/04 02:01:48;;;;;;;;;;;11.00;99.90;;;;;;5069972;28;19908;-72
2024/04/04 02:04:14;;;;;;;;;;;10.90;99.90;;;;;;5052333;28;19904;-75
2024/04/04 02:06:39;;;;;;;;;;;10.90;99.90;;;;;;5070043;28;19911;-74
2024/04/04 02:09:05;;;;;;;;;;;10.90;99.90;;;;;;5068646;28;19991;-73
2024/04/04 02:11:30;;;;;;;;;;;10.90;99.90;;;;;;5051901;28;19904;-73
2024/04/04 02:13:56;;;;;;;;;;;10.80;99.90;;;;;;5069912;28;19904;-75
2024/04/04 02:16:23;;;;;;;;;;;10.80;99.90;;;;;;5051806;28;19913;-73
2024/04/04 02:18:50;;;;;;;;;;;10.80;99.90;;;;;;5051780;28;19969;-75
2024/04/04 02:21:15;;;;;;;;;;;10.90;99.90;;;;;;5052067;28;19916;-74
2024/04/04 02:23:41;;;;;;;;;;;10.90;99.90;;;;;;5069852;28;19909;-73
2024/04/04 02:26:06;;;;;;;;;;;10.90;99.90;;;;;;5051887;28;19916;-74
2024/04/04 02:28:32;;;;;;;;;;;10.80;99.90;;;;;;5070433;28;19965;-73
2024/04/04 02:30:57;;;;;;;;;;;10.80;99.90;;;;;;5069785;28;19909;-74
2024/04/04 02:33:23;;;;;;;;;;;10.80;99.90;;;;;;5051692;28;20002;-74
2024/04/04 02:35:56;;;;;;;;;;;10.80;99.90;;;;;;5051669;28;19916;-74
2024/04/04 02:38:23;;;;;;;;;;;10.70;99.90;;;;;;5069344;28;19920;-74
2024/04/04 02:40:49;;;;;;;;;;;10.70;99.90;;;;;;5051472;28;19916;-74
2024/04/04 02:43:17;;;;;;;;;;;10.70;99.90;;;;;;5069556;28;19912;-74
2024/04/04 02:45:44;;;;;;;;;;;10.70;99.90;;;;;;5069530;28;19912;-74
2024/04/04 02:48:10;;;;;;;;;;;10.70;99.90;;;;;;5069504;28;19904;-74
2024/04/04 02:50:36;;;;;;;;;;;10.70;99.90;;;;;;5051564;28;19963;-73
2024/04/04 02:53:02;;;;;;;;;;;10.70;99.90;;;;;;5069422;28;20012;-73
2024/04/04 02:55:27;;;;;;;;;;;10.70;99.90;;;;;;5051313;28;19908;-75
2024/04/04 02:57:53;;;;;;;;;;;10.70;99.90;;;;;;5069298;28;20479;-73
2024/04/04 03:00:20;;;;;;;;;;;10.70;99.90;;;;;;5069364;28;19908;-75
2024/04/04 03:02:45;;;;;;;;;;;10.60;99.90;;;;;;5069256;28;19904;-74
2024/04/04 03:05:11;;;;;;;;;;;10.60;99.90;;;;;;5069366;28;20008;-74
2024/04/04 03:07:36;;;;;;;;;;;10.70;99.90;;;;;;5069259;28;19958;-76
2024/04/04 03:10:02;;;;;;;;;;;10.60;99.90;;;;;;5051233;28;19919;-75
2024/04/04 03:12:28;;;;;;;;;;;10.60;99.90;;;;;;5069354;28;20327;-74
2024/04/04 03:14:53;;;;;;;;;;;10.60;99.90;;;;;;5069263;28;19955;-74
2024/04/04 03:17:19;;;;;;;;;;;10.60;99.90;;;;;;5051202;28;19948;-75
2024/04/04 03:19:44;;;;;;;;;;;10.70;99.90;;;;;;5070432;28;19916;-73
2024/04/04 03:22:10;;;;;;;;;;;10.70;99.90;;;;;;5072779;28;19915;-73
2024/04/04 03:24:36;;;;;;;;;;;10.70;99.90;;;;;;5054855;28;19954;-73
2024/04/04 03:27:02;;;;;;;;;;;10.60;99.90;;;;;;5054693;28;19938;-73
2024/04/04 03:29:27;;;;;;;;;;;10.60;99.90;;;;;;5054654;28;19919;-76
2024/04/04 03:31:53;;;;;;;;;;;10.60;99.90;;;;;;5054738;28;20003;-74
2024/04/04 03:34:18;;;;;;;;;;;10.50;99.90;;;;;;5072640;28;19908;-74
2024/04/04 03:36:46;;;;;;;;;;;10.50;99.90;;;;;;5072858;28;20514;-74
2024/04/04 03:39:12;;;;;;;;;;;10.40;99.90;;;;;;5072084;28;19921;-73
2024/04/04 03:41:37;;;;;;;;;;;10.30;99.90;;;;;;5072448;28;19912;-74
2024/04/04 03:44:05;;;;;;;;;;;10.20;99.90;;;;;;5072457;28;19974;-73
2024/04/04 03:46:31;;;;;;;;;;;10.10;99.90;;;;;;5054407;28;20365;-73
2024/04/04 03:48:57;;;;;;;;;;;10.00;99.90;;;;;;5072237;28;19915;-73
2024/04/04 03:51:22;;;;;;;;;;;9.90;99.90;;;;;;5054500;28;19959;-73
2024/04/04 03:53:48;;;;;;;;;;;9.80;99.90;;;;;;5054248;28;19915;-73
2024/04/04 03:56:13;;;;;;;;;;;9.80;99.90;;;;;;5072236;28;20418;-74
2024/04/04 03:58:39;;;;;;;;;;;9.70;99.90;;;;;;5054126;28;20430;-74
2024/04/04 04:01:04;;;;;;;;;;;9.70;99.90;;;;;;5072157;28;20288;-74
2024/04/04 04:03:30;;;;;;;;;;;9.70;99.90;;;;;;5072683;28;19904;-74
2024/04/04 04:05:55;;;;;;;;;;;9.70;99.90;;;;;;5072980;28;19909;-73
2024/04/04 04:08:21;;;;;;;;;;;9.70;99.90;;;;;;5072160;28;19918;-74
2024/04/04 04:10:46;;;;;;;;;;;9.70;99.90;;;;;;5073206;28;20006;-74
2024/04/04 04:13:13;;;;;;;;;;;9.70;99.90;;;;;;5073185;28;19971;-74
2024/04/04 04:15:39;;;;;;;;;;;9.70;99.90;;;;;;5054501;28;19919;-74
2024/04/04 04:18:05;;;;;;;;;;;9.70;99.90;;;;;;5071907;28;19912;-73
2024/04/04 04:23:14;;;;;;;;;;;9.60;99.90;;;;;;5072343;28;20391;-74
2024/04/04 04:25:40;;;;;;;;;;;9.60;99.90;;;;;;5053638;28;19905;-74
2024/04/04 04:28:06;;;;;;;;;;;9.60;99.90;;;;;;5053320;28;19915;-73
2024/04/04 04:30:32;;;;;;;;;;;9.50;99.90;;;;;;5070701;28;20063;-73
2024/04/04 04:32:57;;;;;;;;;;;9.50;99.90;;;;;;5071126;28;19961;-73
2024/04/04 04:35:23;;;;;;;;;;;9.40;99.90;;;;;;5071386;28;19950;-74
2024/04/04 04:37:49;;;;;;;;;;;9.40;99.90;;;;;;5053316;28;19917;-74
2024/04/04 04:40:15;;;;;;;;;;;9.30;99.90;;;;;;5086646;28;19923;-74
2024/04/04 04:42:41;;;;;;;;;;;9.30;99.90;;;;;;5091651;28;19908;-73
2024/04/04 04:45:06;;;;;;;;;;;9.30;99.90;;;;;;5091491;28;19919;-74
2024/04/04 04:47:32;;;;;;;;;;;9.30;99.90;;;;;;5091498;28;19912;-74
2024/04/04 04:49:57;;;;;;;;;;;9.30;99.90;;;;;;5091546;28;19997;-73
2024/04/04 04:52:23;;;;;;;;;;;9.30;99.90;;;;;;5089984;28;19915;-73
2024/04/04 04:54:49;;;;;;;;;;;9.30;99.90;;;;;;5091087;28;19908;-74
2024/04/04 04:57:14;;;;;;;;;;;9.30;99.90;;;;;;5089969;28;19947;-73
2024/04/04 04:59:40;;;;;;;;;;;9.30;99.90;;;;;;5091449;28;19912;-75
2024/04/04 05:02:06;;;;;;;;;;;9.40;99.90;;;;;;5091988;28;19904;-73
2024/04/04 05:04:32;;;;;;;;;;;9.50;99.90;;;;;;5091321;28;19914;-73
2024/04/04 05:06:57;;;;;;;;;;;10.00;99.90;;;;;;5089959;28;20002;-74
2024/04/04 05:09:23;;;;;;;;;;;10.70;99.90;;;;;;5091061;28;19957;-74
2024/04/04 05:11:48;;;;;;;;;;;11.40;99.90;;;;;;5089321;28;19908;-73
2024/04/04 05:14:14;;;;;;;;;;;11.70;99.90;;;;;;5089274;28;19904;-74
2024/04/04 05:16:41;;;;;;;;;;;11.80;99.90;;;;;;5089625;28;19911;-73
2024/04/04 05:19:07;;;;;;;;;;;11.80;99.90;;;;;;5090708;28;20339;-73
2024/04/04 05:21:33;;;;;;;;;;;11.90;99.90;;;;;;5090588;28;20269;-73
2024/04/04 05:23:59;;;;;;;;;;;12.60;99.90;;;;;;5089869;28;19918;-74
2024/04/04 05:26:24;;;;;;;;;;;13.20;99.90;;;;;;5090790;28;19910;-73
2024/04/04 05:28:51;;;;;;;;;;;13.80;99.90;;;;;;5090502;28;20246;-73
2024/04/04 05:31:17;;;;;;;;;;;14.00;99.90;;;;;;5089135;28;19915;-74
2024/04/04 05:33:42;;;;;;;;;;;14.00;99.90;;;;;;5090589;28;19911;-73
2024/04/04 05:36:08;;;;;;;;;;;14.40;99.90;;;;;;5090590;28;19904;-74
2024/04/04 05:38:33;;;;;;;;;;;15.00;99.90;;;;;;5086190;28;19920;-74
2024/04/04 05:41:08;;;;;;;;;;;15.60;99.90;;;;;;5052662;28;20253;-74
2024/04/04 05:43:34;;;;;;;;;;;15.60;99.90;;;;;;5070034;28;19912;-73
2024/04/04 05:46:00;;;;;;;;;;;15.60;99.90;;;;;;5070178;28;19911;-73
2024/04/04 05:48:25;;;;;;;;;;;16.10;99.90;;;;;;5070110;28;19923;-73
2024/04/04 05:50:51;;;;;;;;;;;16.90;99.90;;;;;;5070291;28;19915;-74
2024/04/04 05:53:17;;;;;;;;;;;17.60;97.10;;;;;;5070316;28;19912;-75
2024/04/04 05:55:43;;;;;;;;;;;17.70;92.20;;;;;;5051784;28;19913;-74
2024/04/04 05:58:08;;;;;;;;;;;17.30;90.60;;;;;;5069922;28;19916;-74
2024/04/04 06:00:34;;;;;;;;;;;16.80;91.40;;;;;;5070099;28;20300;-74
2024/04/04 06:02:59;;;;;;;;;;;16.40;93.10;;;;;;5070032;28;20361;-74
2024/04/04 06:05:25;;;;;;;;;;;15.90;96.20;;;;;;5069879;28;20435;-74
2024/04/04 06:07:50;;;;;;;;;;;15.60;97.80;;;;;;5069884;28;20626;-74
2024/04/04 06:10:16;;;;;;;;;;;15.30;98.30;;;;;;5069747;28;19908;-72
2024/04/04 06:12:41;;;;;;;;;;;14.90;99.10;;;;;;5051308;28;20003;-74
2024/04/04 06:15:07;;;;;;;;;;;14.70;99.90;;;;;;5051724;28;20613;-73
2024/04/04 06:17:32;;;;;;;;;;;14.60;99.90;;;;;;5051415;28;20017;-74
2024/04/04 06:19:58;;;;;;;;;;;14.50;99.90;;;;;;5051655;28;20007;-74
2024/04/04 06:22:24;;;;;;;;;;;14.40;99.90;;;;;;5051722;28;19908;-73
2024/04/04 06:24:49;;;;;;;;;;;14.50;99.90;;;;;;5069252;28;19911;-74
2024/04/04 06:27:15;;;;;;;;;;;14.50;99.90;;;;;;5051422;28;19923;-74
2024/04/04 06:29:41;;;;;;;;;;;14.50;99.90;;;;;;5051505;28;20384;-74
2024/04/04 06:32:07;;;;;;;;;;;14.50;99.90;;;;;;5051219;28;19908;-73
2024/04/04 06:34:34;;;;;;;;;;;14.70;99.90;;;;;;5051763;28;19938;-74
2024/04/04 06:36:59;;;;;;;;;;;14.80;99.90;;;;;;5051293;28;19915;-74
2024/04/04 06:39:25;;;;;;;;;;;15.00;99.90;;;;;;5069167;28;20270;-71
2024/04/04 06:41:51;;;;;;;;;;;15.20;99.90;;;;;;5069324;28;19908;-73
2024/04/04 06:44:16;;;;;;;;;;;15.30;99.90;;;;;;5051302;28;20004;-72
2024/04/04 06:46:42;;;;;;;;;;;15.30;99.90;;;;;;5051709;28;19991;-74
2024/04/04 06:49:09;;;;;;;;;;;15.10;99.90;;;;;;5069466;28;19904;-73
2024/04/04 06:51:35;;;;;;;;;;;15.00;99.90;;;;;;5051499;28;19935;-73
2024/04/04 06:54:00;;;;;;;;;;;14.90;99.90;;;;;;5069764;28;20412;-73
2024/04/04 06:56:26;;;;;;;;;;;14.90;99.90;;;;;;5073125;28;19911;-72
2024/04/04 06:58:51;;;;;;;;;;;14.80;99.90;;;;;;5055054;28;19916;-74
2024/04/04 07:01:17;;;;;;;;;;;14.80;99.90;;;;;;5055095;28;19904;-74
2024/04/04 07:03:42;;;;;;;;;;;14.70;99.90;;;;;;5055199;28;19912;-74
2024/04/04 07:06:08;;;;;;;;;;;14.80;99.90;;;;;;5055287;28;19904;-74
2024/04/04 07:08:35;;;;;;;;;;;14.80;99.90;;;;;;5073129;28;19908;-74
2024/04/04 07:11:07;;;;;;;;;;;14.90;99.90;;;;;;5072823;28;19952;-74
2024/04/04 07:13:35;;;;;;;;;;;15.10;99.90;;;;;;5055106;28;19927;-74
2024/04/04 07:16:04;;;;;;;;;;;15.10;99.90;;;;;;5055015;28;19924;-73
2024/04/04 07:18:32;;;;;;;;;;;15.20;99.90;;;;;;5072859;28;19912;-72
2024/04/04 07:20:58;;;;;;;;;;;15.40;99.90;;;;;;5072697;28;19920;-74
2024/04/04 07:23:24;;;;;;;;;;;15.60;99.90;;;;;;5054998;28;19904;-74
2024/04/04 07:25:50;;;;;;;;;;;15.70;99.90;;;;;;5072325;28;19911;-74
2024/04/04 07:28:16;;;;;;;;;;;15.90;99.90;;;;;;5072394;28;19908;-73
2024/04/04 07:30:41;;;;;;;;;;;16.00;99.90;;;;;;5055088;28;20356;-74
2024/04/04 07:33:07;;;;;;;;;;;15.90;99.90;;;;;;5054802;28;19912;-74
2024/04/04 07:35:32;;;;;;;;;;;15.80;99.90;;;;;;5054625;28;20011;-74
2024/04/04 07:37:58;;;;;;;;;;;15.80;99.90;;;;;;5072605;28;20001;-73
2024/04/04 07:40:23;;;;;;;;;;;15.60;99.90;;;;;;5072570;28;19917;-73
2024/04/04 07:42:49;;;;;;;;;;;15.50;99.90;;;;;;5054981;28;19915;-74
2024/04/04 07:45:15;;;;;;;;;;;15.30;99.90;;;;;;5072482;28;19991;-73
2024/04/04 07:47:41;;;;;;;;;;;15.20;99.90;;;;;;5054406;28;20285;-74
2024/04/04 07:50:07;;;;;;;;;;;15.10;99.90;;;;;;5072339;28;20364;-73
2024/04/04 07:52:33;;;;;;;;;;;14.90;99.90;;;;;;5054715;28;19911;-73
2024/04/04 07:54:59;;;;;;;;;;;14.70;99.90;;;;;;5054300;28;19912;-74
2024/04/04 07:57:25;;;;;;;;;;;14.60;99.90;;;;;;5054117;28;20418;-73
2024/04/04 07:59:50;;;;;;;;;;;14.50;99.90;;;;;;5054223;28;19912;-74
2024/04/04 08:02:17;;;;;;;;;;;14.40;99.90;;;;;;5072123;28;20458;-73
2024/04/04 08:04:43;;;;;;;;;;;14.30;99.90;;;;;;5072152;28;19961;-73
2024/04/04 08:07:09;;;;;;;;;;;14.30;99.90;;;;;;5070790;28;19904;-74
2024/04/04 08:09:34;;;;;;;;;;;14.30;99.90;;;;;;5071953;28;20321;-74
2024/04/04 08:12:00;;;;;;;;;;;14.20;99.90;;;;;;5054414;28;20365;-74
2024/04/04 08:14:27;;;;;;;;;;;14.20;99.90;;;;;;5053718;28;19999;-74
2024/04/04 08:16:53;;;;;;;;;;;14.20;99.90;;;;;;5054121;28;19912;-74
2024/04/04 08:19:18;;;;;;;;;;;14.30;99.90;;;;;;5071747;28;20305;-73
2024/04/04 08:21:46;;;;;;;;;;;14.30;99.90;;;;;;5053937;28;20384;-74
2024/04/04 08:24:11;;;;;;;;;;;14.50;99.90;;;;;;5071649;28;20269;-73
2024/04/04 08:26:37;;;;;;;;;;;14.80;99.90;;;;;;5053833;28;19987;-73
2024/04/04 08:29:04;;;;;;;;;;;15.10;99.90;;;;;;5053553;28;19912;-73
2024/04/04 08:31:29;;;;;;;;;;;15.50;99.90;;;;;;5053493;28;19909;-73
2024/04/04 08:33:55;;;;;;;;;;;15.90;99.90;;;;;;5071653;28;20018;-74
2024/04/04 08:36:20;;;;;;;;;;;16.40;99.90;;;;;;5053799;28;19908;-74
2024/04/04 08:38:46;;;;;;;;;;;17.00;97.10;;;;;;5061780;28;19941;-74
2024/04/04 08:41:13;;;;;;;;;;;17.40;93.90;;;;;;5090435;28;19912;-74
2024/04/04 08:43:39;;;;;;;;;;;17.80;91.80;;;;;;5090207;28;20124;-74
2024/04/04 08:46:07;;;;;;;;;;;18.00;90.60;;;;;;5090224;28;20031;-73
2024/04/04 08:48:33;;;;;;;;;;;18.10;88.20;;;;;;5091902;28;19916;-73
2024/04/04 08:51:00;;;;;;;;;;;18.20;85.60;;;;;;5090562;28;19908;-74
2024/04/04 08:53:26;;;;;;;;;;;18.10;83.20;;;;;;5090009;28;20013;-74
2024/04/04 08:55:55;;;;;;;;;;;18.00;81.20;;;;;;5091570;28;20439;-73
2024/04/04 08:58:22;;;;;;;;;;;18.00;79.80;;;;;;5090265;28;20320;-73
2024/04/04 09:00:49;;;;;;;;;;;17.90;77.20;;;;;;5091440;28;19908;-74
2024/04/04 09:03:15;;;;;;;;;;;17.90;75.90;;;;;;5090001;28;19938;-73
2024/04/04 09:05:48;;;;;;;;;;;18.10;75.60;;;;;;5090195;28;20308;-74
2024/04/04 09:08:14;;;;;;;;;;;18.20;76.40;;;;;;5089745;28;20296;-74
2024/04/04 09:10:40;;;;;;;;;;;18.50;73.90;;;;;;5089642;28;19911;-74
2024/04/04 09:13:06;;;;;;;;;;;18.70;69.60;;;;;;5090983;28;19911;-73
2024/04/04 09:15:32;;;;;;;;;;;18.90;65.50;;;;;;5091011;28;19911;-74
2024/04/04 09:20:22;;;;;;;1.63;0.50;;;18.90;63.10;;;;;;5052927;28;20754;-74
2024/04/04 09:22:48;;;;;;;0.55;0.20;;;19.00;65.40;;;;;;5061936;28;20061;-74
2024/04/04 09:25:15;;;;;;;0.65;0.40;;;19.40;62.90;;;;;;5046860;28;20108;-74
2024/04/04 09:27:41;;;;;;;0.93;0.40;;;19.70;62.90;;;;;;5046792;28;20025;-74
2024/04/04 09:30:11;;;;;;;1.40;0.40;;;20.30;61.20;;;;;;5045280;28;20040;-73
2024/04/04 09:32:38;;;;;;;2.97;0.25;;;20.80;60.00;;;;;;5044982;28;20112;-73
2024/04/04 09:35:05;;;;;;;1.52;0.40;;;21.60;55.40;;;;;;5046719;28;20107;-73
2024/04/04 09:37:31;;;;;;;0.73;0.30;;;22.40;51.30;;;;;;5046509;28;20036;-74
2024/04/04 09:39:57;;;;;;;0.70;0.30;;;22.90;48.80;;;;;;5045194;28;20037;-73
2024/04/04 09:42:24;;;;;;;3.53;1.10;;;23.10;47.00;;;;;;5045148;28;20040;-74
2024/04/04 09:44:50;;;;;;;1.20;0.30;;;22.90;44.60;;;;;;5046424;28;20075;-75
2024/04/04 09:47:19;;;;;;;0.70;0.30;;;22.50;45.30;;;;;;5045105;28;20033;-74
2024/04/04 09:49:46;;;;;;;1.13;0.30;;;21.90;45.70;;;;;;5046358;28;20026;-73
2024/04/04 09:52:16;;;;;;;2.10;0.40;;;21.20;47.60;;;;;;5046180;28;20466;-73
2024/04/04 09:54:42;;;;;;;0.43;0.22;;;20.80;48.90;;;;;;5032790;28;20036;-74
2024/04/04 09:57:08;;;;;;;1.42;0.30;;;20.50;50.10;;;;;;5024992;28;20399;-73
2024/04/04 09:59:34;;;;;;;2.42;0.30;;;20.10;52.10;;;;;;5024761;28;20494;-74
2024/04/04 10:02:04;;;;;;;1.23;0.40;;;20.30;53.50;;;;;;5041286;28;20077;-75
2024/04/04 10:04:37;;;;;;;3.33;0.30;;;20.80;53.00;;;;;;5025826;28;20030;-73
2024/04/04 10:07:04;;;;;;;1.20;0.30;;;21.30;49.00;;;;;;5024432;28;20036;-73
2024/04/04 10:09:38;;;;;;;1.35;0.30;;;21.10;47.20;;;;;;5025945;28;20026;-73
2024/04/04 10:12:13;;;;;;;1.10;0.30;;;20.70;47.50;;;;;;5024271;28;20026;-73
2024/04/04 10:14:49;;;;;;;0.95;0.30;;;20.30;48.20;;;;;;5024478;28;20035;-74
2024/04/04 10:17:15;;;;;;;1.25;0.50;;;20.00;49.40;;;;;;5025749;28;20447;-74
2024/04/04 10:19:45;;;;;;;0.28;0.20;;;19.60;50.30;;;;;;5024389;28;20449;-73
2024/04/04 10:22:18;;;;;;;2.88;0.30;;;19.30;51.70;;;;;;5025422;28;20111;-72
2024/04/04 10:24:44;;;;;;;0.55;0.30;;;19.10;52.80;;;;;;5025370;28;20033;-73
2024/04/04 10:27:13;;;;;;;0.60;0.32;;;19.00;53.40;;;;;;5024134;28;20495;-71
2024/04/04 10:29:40;;;;;;;3.25;0.40;;;18.90;54.00;;;;;;5022429;28;20034;-72
2024/04/04 10:32:06;;;;;;;1.30;0.20;;;18.70;55.50;;;;;;5012388;28;20022;-73
2024/04/04 10:34:33;;;;;;;0.65;0.30;;;18.50;55.60;;;;;;5012555;28;20464;-72
2024/04/04 10:36:59;;;;;;;0.80;0.32;;;18.40;57.50;;;;;;5027804;28;20380;-73
2024/04/04 10:39:24;;;;;;;0.52;0.30;;;18.30;57.70;;;;;;5012251;28;20052;-72
2024/04/04 10:41:52;;;;;;;1.25;0.30;;;18.30;57.20;;;;;;5027619;28;20025;-73
2024/04/04 10:44:20;;;;;;;0.70;0.20;;;18.30;56.70;;;;;;5011053;28;20511;-72
2024/04/04 10:46:50;;;;;;;0.30;0.20;;;18.40;57.00;;;;;;5004880;28;20018;-74
2024/04/04 10:49:21;;;;;;;2.85;0.35;;;18.50;58.20;;;;;;5011264;28;20582;-73
2024/04/04 10:51:57;;;;;;;1.17;0.40;;;18.50;56.90;;;;;;5012221;28;20040;-73
2024/04/04 10:54:24;;;;;;;1.85;0.30;;;18.50;56.50;;;;;;5012554;28;20041;-73
2024/04/04 10:56:50;;;;;;;0.40;0.20;;;18.20;58.50;;;;;;5012357;28;20030;-73
2024/04/04 10:59:20;;;;;;;2.58;0.30;;;18.00;58.30;;;;;;5012145;28;20112;-73
2024/04/04 11:01:50;;;;;;;0.43;0.20;;;17.90;60.20;;;;;;5012142;28;20029;-73
2024/04/04 11:04:18;;;;;;;0.28;0.20;;;17.90;58.60;;;;;;5010285;28;20065;-73
2024/04/04 11:06:45;;;;;;;1.52;0.30;;;17.90;60.40;;;;;;5011829;28;20446;-73
2024/04/04 11:09:15;;;;;;;0.85;0.20;;;17.90;61.50;;;;;;5011771;28;20022;-73
2024/04/04 11:11:45;;;;;;;0.30;0.20;;;17.90;60.80;;;;;;5011438;28;20040;-72
2024/04/04 11:14:11;;;;;;;0.50;0.20;;;17.80;60.40;;;;;;5010607;28;20116;-73
2024/04/04 11:16:41;;;;;;;4.03;0.20;;;18.00;59.20;;;;;;5011745;28;20117;-73
2024/04/04 11:19:08;;;;;;;0.80;0.20;;;18.10;58.40;;;;;;5026703;28;20053;-72
2024/04/04 11:21:35;;;;;;;0.73;0.25;;;18.20;57.50;;;;;;5010203;28;20485;-72
2024/04/04 11:24:01;;;;;;;0.25;0.20;;;18.40;58.90;;;;;;5010345;28;20026;-74
2024/04/04 11:26:27;;;;;;;0.28;0.20;;;18.50;57.80;;;;;;5011600;28;20026;-73
2024/04/04 11:28:52;;;;;;;2.35;0.22;;;18.50;56.60;;;;;;5009958;28;20032;-72
2024/04/04 11:31:18;;;;;;;0.57;0.20;;;18.60;56.00;;;;;;5011368;28;20052;-73
2024/04/04 11:33:45;;;;;;;0.20;0.20;;;18.30;55.60;;;;;;5026255;28;20084;-73
2024/04/04 11:36:11;;;;;;;1.35;0.30;;;18.20;56.30;;;;;;5009776;28;20469;-73
2024/04/04 11:38:36;;;;;;;1.15;0.20;;;18.20;56.80;;;;;;5010922;28;20027;-72
2024/04/04 11:41:03;;;;;;;0.20;0.20;;;18.10;57.00;;;;;;5011008;28;20223;-73
2024/04/04 11:43:31;;;;;;;0.20;0.20;;;17.90;57.00;;;;;;5009186;28;20045;-73
2024/04/04 11:45:56;;;;;;;0.57;0.30;;;17.80;58.10;;;;;;5009893;28;20454;-72
2024/04/04 11:48:22;;;;;;;0.20;0.20;;;17.60;59.00;;;;;;5010971;28;20180;-74
2024/04/04 11:50:49;;;;;;;0.30;0.20;;;17.40;60.50;;;;;;5011005;28;20075;-73
2024/04/04 11:53:15;;;;;;;2.17;0.30;;;17.20;61.60;;;;;;5009561;28;20425;-73
2024/04/04 11:55:42;;;;;;;1.52;0.20;;;17.20;62.40;;;;;;5011014;28;20033;-72
2024/04/04 11:58:08;;;;;;;0.63;0.20;;;17.30;63.70;;;;;;5010879;28;20022;-73
2024/04/04 12:00:34;;;;;;;0.63;0.20;;;17.50;63.60;;;;;;5009575;28;20087;-73
2024/04/04 12:03:03;;;;;;;1.00;0.52;;;17.70;62.50;;;;;;5010797;28;20101;-73
2024/04/04 12:05:34;;;;;;;1.45;0.20;;;17.90;61.00;;;;;;5005167;28;20030;-74
2024/04/04 12:08:00;;;;;;;1.25;0.40;;;18.10;59.50;;;;;;5010902;28;20452;-73
2024/04/04 12:10:26;;;;;;;2.53;0.50;;;18.30;56.30;;;;;;5010869;28;20041;-74
2024/04/04 12:12:53;;;;;;;1.42;0.50;;;18.30;55.70;;;;;;5025686;28;20038;-74
2024/04/04 12:15:22;;;;;;;4.15;2.28;;;18.40;55.80;;;;;;5009206;28;20029;-73
2024/04/04 12:17:52;;;;;;;4.38;1.95;;;18.40;56.00;;;;;;5009147;28;20030;-73
2024/04/04 12:20:19;;;;;;;2.58;0.47;;;18.50;54.20;;;;;;5010223;28;20042;-72
2024/04/04 12:22:45;;;;;;;1.13;0.30;;;18.70;52.70;;;;;;5025311;28;20021;-72
2024/04/04 12:25:15;;;;;;;0.80;0.30;;;18.60;54.10;;;;;;5010446;28;20108;-72
2024/04/04 12:27:44;;;;;;;0.60;0.32;;;18.50;55.60;;;;;;5009002;28;20036;-73
2024/04/04 12:30:10;;;;;;;0.20;0.20;;;18.30;55.80;;;;;;5010378;28;20125;-73
2024/04/04 12:32:36;;;;;;;0.35;0.20;;;18.30;55.80;;;;;;5025629;28;20447;-73
2024/04/04 12:35:02;;;;;;;2.72;0.20;;;18.20;56.20;;;;;;5008843;28;20033;-74
2024/04/04 12:37:28;;;;;;;0.93;0.30;;;18.20;57.80;;;;;;5008880;28;20033;-73
2024/04/04 12:39:54;;;;;;;1.83;0.30;;;18.10;57.50;;;;;;5010060;28;20037;-73
2024/04/04 12:42:20;;;;;;;0.65;0.20;;;18.00;58.10;;;;;;5025117;28;20380;-74
2024/04/04 12:44:46;;;;;;;0.30;0.20;;;17.90;58.10;;;;;;5010057;28;20569;-73
2024/04/04 12:47:13;;;;;;;0.73;0.30;;;17.70;58.70;;;;;;5008738;28;20026;-74
2024/04/04 12:49:39;;;;;;;0.75;0.30;;;17.70;60.10;;;;;;5009994;28;20053;-73
2024/04/04 12:52:05;;;;;;;0.30;0.20;;;17.60;59.30;;;;;;5010060;28;20034;-73
2024/04/04 12:54:31;;;;;;;2.90;0.40;;;17.60;59.80;;;;;;5008290;28;20084;-72
2024/04/04 12:56:57;;;;;;;1.23;0.30;;;17.50;62.50;;;;;;5009833;28;20033;-73
2024/04/04 12:59:22;;;;;;;3.10;0.30;;;17.40;63.90;;;;;;5009839;28;20058;-74
2024/04/04 13:01:48;;;;;;;0.43;0.28;;;17.30;63.60;;;;;;5008517;28;20105;-74
2024/04/04 13:04:14;;;;;;;1.27;0.30;;;17.40;61.90;;;;;;5009765;28;20037;-73
2024/04/04 13:06:40;;;;;;;1.00;0.30;;;17.30;61.90;;;;;;5009796;28;20022;-73
2024/04/04 13:09:05;;;;;;;2.45;0.30;;;17.30;62.30;;;;;;5008619;28;20042;-73
2024/04/04 13:11:31;;;;;;;0.52;0.20;;;17.30;63.70;;;;;;5009584;28;20457;-73
2024/04/04 13:13:57;;;;;;;1.42;0.57;;;17.30;64.80;;;;;;5009830;28;20034;-73
2024/04/04 13:16:23;;;;;;;5.55;1.33;;;17.50;66.00;;;;;;5024658;28;20037;-73
2024/04/04 13:18:48;;;;;;;1.05;0.30;;;17.80;63.80;;;;;;5024629;28;20069;-74
2024/04/04 13:21:14;;;;;;;1.60;0.40;;;18.00;63.00;;;;;;5009666;28;20041;-75
2024/04/04 13:23:39;;;;;;;1.08;0.30;;;18.30;61.40;;;;;;5008014;28;20076;-74
2024/04/04 13:26:05;;;;;;;0.95;0.30;;;18.50;60.10;;;;;;5024826;28;20045;-74
2024/04/04 13:28:31;;;;;;;1.17;0.30;;;18.70;60.10;;;;;;5024694;28;20026;-73
2024/04/04 13:30:57;;;;;;;0.63;0.30;;;18.80;58.70;;;;;;5024624;28;20564;-73
2024/04/04 13:33:22;;;;;;;1.30;0.40;;;18.90;58.30;;;;;;5009590;28;20586;-73
2024/04/04 13:35:48;;;;;;;2.67;0.30;;;19.00;58.60;;;;;;5009522;28;20414;-73
2024/04/04 13:38:15;;;;;;;0.30;0.20;;;19.30;57.70;;;;;;5009360;28;20033;-74
2024/04/04 13:40:41;;;;;;;2.97;0.38;;;19.30;56.90;;;;;;5024782;28;20621;-73
2024/04/04 13:43:06;;;;;;;1.15;0.25;;;19.30;56.80;;;;;;5008148;28;20034;-73
2024/04/04 13:45:32;;;;;;;0.95;0.40;;;19.30;56.70;;;;;;5009317;28;20553;-73